Time;durP1;ratioP1;P1;durP2;ratioP2;P2;SDS_P1;SDS_P2;PMS_P1;PMS_P2;Temp;Humidity;BMP_temperature;BMP_pressure;BME280_temperature;BME280_humidity;BME280_pressure;Samples;Min_cycle;Max_cycle;Signal;HPM_P1;HPM_P2
2023/08/09 00:02:59;;;;;;;4.43;1.63;;;;;;;;;;8206955;28;20035;-69
2023/08/09 00:06:59;;;;;;;3.38;1.45;;;;;;;;;;8215571;28;20269;-70
2023/08/09 00:11:00;;;;;;;3.90;1.40;;;;;;;;;;8212621;28;20027;-69
2023/08/09 00:15:00;;;;;;;1.77;1.33;;;;;;;;;;8207750;28;20030;-69
2023/08/09 00:19:00;;;;;;;3.25;1.42;;;;;;;;;;8208455;28;20126;-69
2023/08/09 00:23:01;;;;;;;2.72;1.70;;;;;;;;;;8206537;28;20048;-69
2023/08/09 00:27:01;;;;;;;3.95;1.50;;;;;;;;;;8208098;28;20085;-69
2023/08/09 00:31:03;;;;;;;4.82;1.60;;;;;;;;;;8209652;28;20043;-69
2023/08/09 00:35:03;;;;;;;3.10;1.60;;;;;;;;;;8205845;28;20552;-69
2023/08/09 00:39:05;;;;;;;3.45;1.67;;;;;;;;;;8207158;28;20153;-69
2023/08/09 00:43:06;;;;;;;3.28;1.58;;;;;;;;;;8205053;28;20064;-68
2023/08/09 00:47:07;;;;;;;2.42;1.50;;;;;;;;;;8205894;28;20829;-68
2023/08/09 00:51:09;;;;;;;4.65;1.67;;;;;;;;;;8208302;28;20042;-68
2023/08/09 00:55:10;;;;;;;4.43;1.80;;;;;;;;;;8205615;28;20060;-69
2023/08/09 00:59:10;;;;;;;3.13;1.48;;;;;;;;;;8206522;28;20556;-68
2023/08/09 01:03:11;;;;;;;3.23;1.90;;;;;;;;;;8205237;28;20846;-68
2023/08/09 01:07:26;;;;;;;2.53;1.33;;;;;;;;;;8207659;28;20137;-68
2023/08/09 01:11:29;;;;;;;3.25;1.40;;;;;;;;;;8208276;28;20625;-68
2023/08/09 01:15:31;;;;;;;4.35;1.67;;;;;;;;;;8207274;28;20034;-68
2023/08/09 01:19:35;;;;;;;5.70;1.50;;;;;;;;;;8206305;28;20035;-68
2023/08/09 01:23:36;;;;;;;2.53;1.42;;;;;;;;;;8208178;28;20137;-69
2023/08/09 01:27:36;;;;;;;5.07;1.60;;;;;;;;;;8207521;28;20114;-69
2023/08/09 01:31:37;;;;;;;3.42;1.45;;;;;;;;;;8206404;28;20078;-69
2023/08/09 01:35:40;;;;;;;4.13;1.70;;;;;;;;;;8204543;28;20122;-69
2023/08/09 01:39:41;;;;;;;2.63;1.50;;;;;;;;;;8203821;28;20026;-69
2023/08/09 01:43:42;;;;;;;2.70;1.67;;;;;;;;;;8207763;28;20034;-69
2023/08/09 01:47:42;;;;;;;2.78;1.45;;;;;;;;;;8204807;28;21016;-69
2023/08/09 01:51:43;;;;;;;3.17;1.27;;;;;;;;;;8208025;28;20022;-69
2023/08/09 01:55:43;;;;;;;4.05;1.60;;;;;;;;;;8206001;28;20057;-69
2023/08/09 01:59:44;;;;;;;4.43;1.48;;;;;;;;;;8206487;28;20049;-69
2023/08/09 02:03:44;;;;;;;3.47;1.50;;;;;;;;;;8207097;28;20066;-69
2023/08/09 02:07:44;;;;;;;2.30;1.40;;;;;;;;;;8207340;28;20042;-69
2023/08/09 02:11:44;;;;;;;2.33;1.50;;;;;;;;;;8210137;28;20022;-69
2023/08/09 02:15:45;;;;;;;10.15;1.83;;;;;;;;;;8209570;28;20040;-70
2023/08/09 02:19:45;;;;;;;2.60;1.48;;;;;;;;;;8210133;28;20044;-70
2023/08/09 02:23:45;;;;;;;2.72;1.48;;;;;;;;;;8207501;28;20038;-69
2023/08/09 02:27:46;;;;;;;4.70;1.40;;;;;;;;;;8210174;28;20037;-69
2023/08/09 02:31:47;;;;;;;2.30;1.38;;;;;;;;;;8210909;28;20058;-70
2023/08/09 02:35:56;;;;;;;2.85;1.30;;;;;;;;;;8210406;28;20944;-69
2023/08/09 02:39:57;;;;;;;4.85;1.30;;;;;;;;;;8212192;28;20049;-69
2023/08/09 02:43:58;;;;;;;2.15;1.27;;;;;;;;;;8222087;28;20023;-69
2023/08/09 02:47:58;;;;;;;2.78;1.65;;;;;;;;;;8213538;28;20027;-69
2023/08/09 02:51:58;;;;;;;3.97;1.67;;;;;;;;;;8209286;28;20033;-69
2023/08/09 02:55:58;;;;;;;4.43;1.40;;;;;;;;;;8209894;28;20031;-69
2023/08/09 02:59:58;;;;;;;2.03;1.30;;;;;;;;;;8209636;28;20030;-69
2023/08/09 03:03:59;;;;;;;3.47;1.40;;;;;;;;;;8208678;28;20720;-69
2023/08/09 03:07:59;;;;;;;4.47;1.50;;;;;;;;;;8209281;28;20162;-69
2023/08/09 03:11:59;;;;;;;3.50;1.47;;;;;;;;;;8211280;28;20973;-69
2023/08/09 03:16:00;;;;;;;3.08;1.50;;;;;;;;;;8209612;28;20266;-69
2023/08/09 03:20:01;;;;;;;2.03;1.25;;;;;;;;;;8210165;28;20026;-69
2023/08/09 03:24:02;;;;;;;4.22;1.40;;;;;;;;;;8210486;28;20087;-69
2023/08/09 03:28:02;;;;;;;2.17;1.30;;;;;;;;;;8212089;28;20414;-69
2023/08/09 03:32:03;;;;;;;2.53;1.33;;;;;;;;;;8206923;28;20045;-69
2023/08/09 03:36:04;;;;;;;1.80;1.40;;;;;;;;;;8209723;28;20049;-69
2023/08/09 03:40:07;;;;;;;4.32;1.33;;;;;;;;;;8207097;28;20650;-68
2023/08/09 03:44:07;;;;;;;4.32;1.65;;;;;;;;;;8208567;28;20687;-69
2023/08/09 03:48:08;;;;;;;4.13;1.45;;;;;;;;;;8208436;28;20051;-69
2023/08/09 03:52:08;;;;;;;1.33;1.13;;;;;;;;;;8214591;28;20826;-69
2023/08/09 03:56:10;;;;;;;3.90;1.47;;;;;;;;;;8212890;28;20125;-70
2023/08/09 04:00:17;;;;;;;5.05;1.60;;;;;;;;;;8218572;28;20161;-70
2023/08/09 04:04:17;;;;;;;2.72;1.40;;;;;;;;;;8210578;28;20037;-69
2023/08/09 04:08:17;;;;;;;3.22;1.58;;;;;;;;;;8212689;28;20031;-70
2023/08/09 04:12:18;;;;;;;3.35;1.48;;;;;;;;;;8222228;28;20031;-70
2023/08/09 04:16:18;;;;;;;2.55;1.60;;;;;;;;;;8231227;28;20098;-69
2023/08/09 04:20:19;;;;;;;3.40;1.42;;;;;;;;;;8226887;28;20027;-69
2023/08/09 04:24:19;;;;;;;3.97;1.48;;;;;;;;;;8225805;28;20138;-76
2023/08/09 04:28:19;;;;;;;4.13;1.40;;;;;;;;;;8218580;28;20888;-70
2023/08/09 04:32:20;;;;;;;3.37;1.33;;;;;;;;;;8217643;28;20667;-70
2023/08/09 04:36:20;;;;;;;3.28;1.17;;;;;;;;;;8229895;28;20297;-70
2023/08/09 04:40:20;;;;;;;5.20;1.50;;;;;;;;;;8219898;28;20133;-69
2023/08/09 04:44:20;;;;;;;2.97;1.20;;;;;;;;;;8218563;28;20281;-69
2023/08/09 04:48:21;;;;;;;4.68;1.73;;;;;;;;;;8210858;28;20086;-69
2023/08/09 04:52:21;;;;;;;5.40;2.60;;;;;;;;;;8208517;28;20022;-70
2023/08/09 04:56:21;;;;;;;4.88;2.08;;;;;;;;;;8210288;28;20065;-69
2023/08/09 05:00:21;;;;;;;3.40;1.95;;;;;;;;;;8210282;28;20026;-69
2023/08/09 05:04:21;;;;;;;5.23;1.30;;;;;;;;;;8210973;28;20031;-69
2023/08/09 05:08:23;;;;;;;3.05;1.40;;;;;;;;;;8214128;28;20082;-71
2023/08/09 05:12:23;;;;;;;5.30;1.45;;;;;;;;;;8233621;28;20053;-73
2023/08/09 05:16:25;;;;;;;6.78;1.50;;;;;;;;;;8217961;28;20039;-70
2023/08/09 05:20:25;;;;;;;4.53;1.25;;;;;;;;;;8216542;28;20062;-71
2023/08/09 05:24:26;;;;;;;1.67;1.10;;;;;;;;;;8221492;28;20080;-70
2023/08/09 05:28:26;;;;;;;3.45;1.20;;;;;;;;;;8212685;28;20042;-70
2023/08/09 05:32:26;;;;;;;3.00;1.30;;;;;;;;;;8212756;28;20047;-70
2023/08/09 05:36:26;;;;;;;3.83;1.33;;;;;;;;;;8213672;28;20053;-70
2023/08/09 05:40:29;;;;;;;2.90;1.48;;;;;;;;;;8217631;28;20034;-70
2023/08/09 05:44:29;;;;;;;1.58;1.20;;;;;;;;;;8223767;28;20069;-70
2023/08/09 05:48:29;;;;;;;2.47;1.27;;;;;;;;;;8218976;28;20031;-70
2023/08/09 05:52:29;;;;;;;2.90;1.10;;;;;;;;;;8217923;28;20687;-70
2023/08/09 05:56:30;;;;;;;2.33;1.23;;;;;;;;;;8222321;28;20483;-69
2023/08/09 06:00:30;;;;;;;4.27;1.47;;;;;;;;;;8219595;28;20042;-70
2023/08/09 06:04:31;;;;;;;2.63;1.30;;;;;;;;;;8218598;28;20273;-70
2023/08/09 06:08:31;;;;;;;2.00;1.07;;;;;;;;;;8219593;28;20077;-70
2023/08/09 06:12:31;;;;;;;2.75;1.15;;;;;;;;;;8225608;28;20329;-72
2023/08/09 06:16:34;;;;;;;3.05;1.33;;;;;;;;;;8216031;28;20165;-70
2023/08/09 06:20:34;;;;;;;2.25;1.58;;;;;;;;;;8221747;28;20022;-70
2023/08/09 06:24:35;;;;;;;2.42;1.55;;;;;;;;;;8216234;28;20027;-71
2023/08/09 06:28:38;;;;;;;2.42;1.30;;;;;;;;;;8217460;28;20455;-71
2023/08/09 06:32:38;;;;;;;3.27;1.77;;;;;;;;;;8221588;28;20039;-71
2023/08/09 06:36:38;;;;;;;2.63;1.52;;;;;;;;;;8225094;28;20426;-70
2023/08/09 06:40:39;;;;;;;5.20;1.60;;;;;;;;;;8218947;28;20117;-70
2023/08/09 06:44:39;;;;;;;5.03;1.58;;;;;;;;;;8223237;28;20043;-70
2023/08/09 06:48:39;;;;;;;4.22;1.63;;;;;;;;;;8214245;28;20149;-71
2023/08/09 06:52:40;;;;;;;2.22;1.27;;;;;;;;;;8216554;28;20018;-72
2023/08/09 06:56:40;;;;;;;2.00;1.40;;;;;;;;;;8238434;28;20027;-70
2023/08/09 07:00:40;;;;;;;2.03;1.10;;;;;;;;;;8222227;28;20263;-69
2023/08/09 07:04:40;;;;;;;3.63;1.30;;;;;;;;;;8213681;28;20026;-71
2023/08/09 07:08:41;;;;;;;2.40;1.52;;;;;;;;;;8212835;28;20053;-71
2023/08/09 07:12:41;;;;;;;3.63;1.27;;;;;;;;;;8215680;28;20025;-71
2023/08/09 07:16:42;;;;;;;1.63;1.17;;;;;;;;;;8209905;28;20812;-70
2023/08/09 07:20:42;;;;;;;4.70;1.30;;;;;;;;;;8215781;28;20034;-70
2023/08/09 07:24:43;;;;;;;2.17;1.10;;;;;;;;;;8211032;28;20336;-70
2023/08/09 07:28:43;;;;;;;2.10;1.33;;;;;;;;;;8213367;28;20396;-70
2023/08/09 07:32:43;;;;;;;3.28;1.20;;;;;;;;;;8213708;28;20035;-70
2023/08/09 07:36:43;;;;;;;3.72;1.08;;;;;;;;;;8211254;28;20018;-70
2023/08/09 07:40:44;;;;;;;5.70;1.10;;;;;;;;;;8210033;28;20041;-70
2023/08/09 07:44:44;;;;;;;2.38;1.00;;;;;;;;;;8214638;28;20049;-71
2023/08/09 07:48:45;;;;;;;2.53;1.30;;;;;;;;;;8220704;28;20073;-70
2023/08/09 07:52:45;;;;;;;1.58;1.23;;;;;;;;;;8210878;28;20462;-70
2023/08/09 07:56:45;;;;;;;2.60;1.20;;;;;;;;;;8207500;28;20544;-70
2023/08/09 08:00:45;;;;;;;3.88;1.13;;;;;;;;;;8214249;28;20042;-71
2023/08/09 08:04:45;;;;;;;2.17;1.20;;;;;;;;;;8223416;28;20104;-70
2023/08/09 08:08:46;;;;;;;1.83;1.25;;;;;;;;;;8210646;28;20035;-71
2023/08/09 08:12:48;;;;;;;5.73;1.10;;;;;;;;;;8209759;28;20181;-70
2023/08/09 08:16:50;;;;;;;1.13;1.02;;;;;;;;;;8208440;28;20282;-71
2023/08/09 08:20:50;;;;;;;0.88;0.80;;;;;;;;;;8219983;28;20824;-69
2023/08/09 08:24:50;;;;;;;3.92;1.17;;;;;;;;;;8209521;28;20144;-73
2023/08/09 08:28:50;;;;;;;3.92;1.10;;;;;;;;;;8210826;28;20030;-70
2023/08/09 08:32:53;;;;;;;4.00;1.10;;;;;;;;;;8203418;28;20045;-70
2023/08/09 08:36:54;;;;;;;1.98;1.10;;;;;;;;;;8204442;28;20023;-70
2023/08/09 08:40:54;;;;;;;0.95;0.90;;;;;;;;;;8203040;28;20038;-69
2023/08/09 08:44:55;;;;;;;2.17;1.10;;;;;;;;;;8209357;28;20030;-70
2023/08/09 08:48:57;;;;;;;1.60;0.95;;;;;;;;;;8197737;28;20072;-71
2023/08/09 08:52:58;;;;;;;4.82;1.00;;;;;;;;;;8202700;28;20951;-70
2023/08/09 08:56:59;;;;;;;1.08;0.90;;;;;;;;;;8192604;28;20069;-71
2023/08/09 09:00:59;;;;;;;2.88;0.90;;;;;;;;;;8206254;28;20031;-70
2023/08/09 09:04:59;;;;;;;5.63;0.90;;;;;;;;;;8207024;28;20023;-71
2023/08/09 09:09:00;;;;;;;1.13;1.00;;;;;;;;;;8201185;28;20165;-71
2023/08/09 09:13:00;;;;;;;3.58;1.00;;;;;;;;;;8205023;28;20622;-70
2023/08/09 09:17:00;;;;;;;1.13;0.85;;;;;;;;;;8210329;28;20034;-71
2023/08/09 09:21:01;;;;;;;2.85;0.90;;;;;;;;;;8205084;28;20026;-70
2023/08/09 09:25:07;;;;;;;1.48;0.73;;;;;;;;;;8200405;28;20038;-71
2023/08/09 09:29:08;;;;;;;2.75;0.70;;;;;;;;;;8210752;28;20038;-70
2023/08/09 09:33:08;;;;;;;0.95;0.77;;;;;;;;;;8210390;28;20087;-71
2023/08/09 09:37:09;;;;;;;1.35;0.82;;;;;;;;;;8212553;28;20034;-71
2023/08/09 09:41:10;;;;;;;1.35;1.00;;;;;;;;;;8213176;28;20030;-70
2023/08/09 09:45:11;;;;;;;2.72;0.82;;;;;;;;;;8202728;28;20026;-70
2023/08/09 09:49:13;;;;;;;2.58;0.82;;;;;;;;;;8209646;28;20125;-70
2023/08/09 09:53:14;;;;;;;2.50;0.90;;;;;;;;;;8211446;28;20031;-70
2023/08/09 09:57:14;;;;;;;3.13;1.10;;;;;;;;;;8212603;28;20061;-69
2023/08/09 10:01:18;;;;;;;2.38;0.95;;;;;;;;;;8211362;28;20034;-71
2023/08/09 10:05:22;;;;;;;2.88;1.05;;;;;;;;;;8215574;28;20056;-71
2023/08/09 10:09:23;;;;;;;1.42;0.80;;;;;;;;;;8209644;28;20061;-71
2023/08/09 10:13:24;;;;;;;1.73;1.10;;;;;;;;;;8212052;28;20026;-71
2023/08/09 10:17:25;;;;;;;2.53;0.80;;;;;;;;;;8210674;28;20104;-70
2023/08/09 10:21:27;;;;;;;1.95;0.93;;;;;;;;;;8223088;28;20049;-70
2023/08/09 10:25:46;;;;;;;0.77;0.77;;;;;;;;;;8216433;28;20592;-70
2023/08/09 10:29:56;;;;;;;0.82;0.70;;;;;;;;;;8207482;28;20030;-70
2023/08/09 10:34:02;;;;;;;1.27;0.80;;;;;;;;;;8207925;28;20050;-71
2023/08/09 10:38:05;;;;;;;0.80;0.68;;;;;;;;;;8206863;28;20023;-71
2023/08/09 10:42:09;;;;;;;0.70;0.70;;;;;;;;;;8213168;28;20098;-70
2023/08/09 10:46:18;;;;;;;0.50;0.50;;;;;;;;;;8204123;28;20442;-71
2023/08/09 10:50:19;;;;;;;0.70;0.70;;;;;;;;;;8205902;28;20034;-70
2023/08/09 10:54:20;;;;;;;0.85;0.80;;;;;;;;;;8205668;28;20029;-70
2023/08/09 10:58:25;;;;;;;0.55;0.55;;;;;;;;;;8209322;28;20026;-70
2023/08/09 11:02:25;;;;;;;1.17;0.70;;;;;;;;;;8203498;28;20041;-71
2023/08/09 11:06:33;;;;;;;0.90;0.63;;;;;;;;;;8197908;28;20026;-70
2023/08/09 11:10:33;;;;;;;2.95;0.68;;;;;;;;;;8199964;28;20294;-71
2023/08/09 11:14:33;;;;;;;0.93;0.70;;;;;;;;;;8206800;28;20241;-72
2023/08/09 11:18:34;;;;;;;0.70;0.70;;;;;;;;;;8202106;28;20056;-70
2023/08/09 11:22:34;;;;;;;1.63;0.60;;;;;;;;;;8202000;28;20030;-70
2023/08/09 11:26:36;;;;;;;0.93;0.60;;;;;;;;;;8203622;28;20029;-71
2023/08/09 11:30:38;;;;;;;1.07;0.50;;;;;;;;;;8202488;28;20057;-71
2023/08/09 11:34:38;;;;;;;1.60;0.60;;;;;;;;;;8205553;28;20045;-70
2023/08/09 11:38:39;;;;;;;0.60;0.60;;;;;;;;;;8202753;28;20062;-71
2023/08/09 11:42:39;;;;;;;0.50;0.50;;;;;;;;;;8205667;28;20038;-70
2023/08/09 11:46:42;;;;;;;0.60;0.55;;;;;;;;;;8205733;28;20584;-70
2023/08/09 11:50:42;;;;;;;;;;;;;;;;;;8215129;28;20082;-71
2023/08/09 11:54:42;;;;;;;0.63;0.63;;;;;;;;;;8202405;28;19914;-71
2023/08/09 11:58:44;;;;;;;1.05;0.60;;;;;;;;;;8203176;28;20583;-72
2023/08/09 12:02:44;;;;;;;0.60;0.60;;;;;;;;;;8203477;28;20586;-72
2023/08/09 12:06:53;;;;;;;0.63;0.60;;;;;;;;;;8201776;28;20089;-72
2023/08/09 12:10:54;;;;;;;0.73;0.47;;;;;;;;;;8217639;28;20027;-74
2023/08/09 12:14:54;;;;;;;1.67;0.70;;;;;;;;;;8202160;28;20343;-73
2023/08/09 12:18:54;;;;;;;1.13;0.50;;;;;;;;;;8202896;28;20054;-73
2023/08/09 12:22:55;;;;;;;0.50;0.50;;;;;;;;;;8206996;28;20018;-73
2023/08/09 12:26:55;;;;;;;0.50;0.50;;;;;;;;;;8196711;28;20145;-73
2023/08/09 12:30:55;;;;;;;0.50;0.50;;;;;;;;;;8200545;28;20043;-75
2023/08/09 12:34:55;;;;;;;0.50;0.50;;;;;;;;;;8200844;28;20219;-74
2023/08/09 12:38:58;;;;;;;0.50;0.50;;;;;;;;;;8200783;28;20120;-74
2023/08/09 12:42:59;;;;;;;0.40;0.40;;;;;;;;;;8202315;28;20054;-74
2023/08/09 12:46:59;;;;;;;0.77;0.60;;;;;;;;;;8201170;28;20047;-73
2023/08/09 12:50:59;;;;;;;0.50;0.50;;;;;;;;;;8201948;28;20058;-73
2023/08/09 12:54:59;;;;;;;0.55;0.55;;;;;;;;;;8203214;28;20479;-73
2023/08/09 12:59:00;;;;;;;0.60;0.60;;;;;;;;;;8206233;28;20022;-74
2023/08/09 13:03:00;;;;;;;0.75;0.50;;;;;;;;;;8200975;28;20324;-73
2023/08/09 13:07:00;;;;;;;0.60;0.60;;;;;;;;;;8202644;28;20022;-73
2023/08/09 13:11:00;;;;;;;0.40;0.40;;;;;;;;;;8203510;28;20113;-73
2023/08/09 13:15:01;;;;;;;0.98;0.55;;;;;;;;;;8199470;28;20193;-74
2023/08/09 13:19:01;;;;;;;0.70;0.70;;;;;;;;;;8200670;28;20126;-73
2023/08/09 13:23:02;;;;;;;0.50;0.50;;;;;;;;;;8203161;28;20030;-74
2023/08/09 13:27:03;;;;;;;0.70;0.60;;;;;;;;;;8199378;28;20027;-73
2023/08/09 13:31:03;;;;;;;0.40;0.40;;;;;;;;;;8201580;28;20154;-73
2023/08/09 13:35:07;;;;;;;3.33;0.53;;;;;;;;;;8203964;28;20976;-73
2023/08/09 13:39:07;;;;;;;0.50;0.50;;;;;;;;;;8215650;28;20068;-74
2023/08/09 13:43:08;;;;;;;0.50;0.50;;;;;;;;;;8199816;28;20473;-74
2023/08/09 13:47:08;;;;;;;0.50;0.50;;;;;;;;;;8199319;28;20049;-74
2023/08/09 13:51:09;;;;;;;0.60;0.60;;;;;;;;;;8203357;28;20049;-74
2023/08/09 13:55:09;;;;;;;0.60;0.60;;;;;;;;;;8202090;28;20320;-74
2023/08/09 13:59:09;;;;;;;0.50;0.50;;;;;;;;;;8202040;28;20034;-74
2023/08/09 14:03:10;;;;;;;0.63;0.60;;;;;;;;;;8208126;28;20833;-74
2023/08/09 14:07:10;;;;;;;0.87;0.70;;;;;;;;;;8213453;28;20774;-73
2023/08/09 14:11:10;;;;;;;0.65;0.65;;;;;;;;;;8207211;28;20026;-73
2023/08/09 14:15:10;;;;;;;0.70;0.70;;;;;;;;;;8205246;28;20085;-73
2023/08/09 14:19:12;;;;;;;1.65;0.80;;;;;;;;;;8207044;28;20113;-72
2023/08/09 14:23:13;;;;;;;0.70;0.70;;;;;;;;;;8204160;28;20058;-71
2023/08/09 14:27:13;;;;;;;0.60;0.60;;;;;;;;;;8205892;28;20578;-71
2023/08/09 14:31:13;;;;;;;3.17;0.70;;;;;;;;;;8205532;28;20153;-71
2023/08/09 14:35:13;;;;;;;0.77;0.77;;;;;;;;;;8202688;28;20046;-71
2023/08/09 14:39:14;;;;;;;1.00;0.70;;;;;;;;;;8213866;28;20566;-70
2023/08/09 14:43:14;;;;;;;2.00;0.73;;;;;;;;;;8210260;28;20274;-71
2023/08/09 14:47:14;;;;;;;0.60;0.60;;;;;;;;;;8208985;28;20798;-71
2023/08/09 14:51:15;;;;;;;1.58;0.70;;;;;;;;;;8210502;28;20030;-70
2023/08/09 14:55:15;;;;;;;0.70;0.70;;;;;;;;;;8207486;28;20556;-70
2023/08/09 14:59:15;;;;;;;0.90;0.90;;;;;;;;;;8210149;28;20437;-70
2023/08/09 15:03:15;;;;;;;1.08;0.70;;;;;;;;;;8207156;28;20129;-71
2023/08/09 15:07:16;;;;;;;0.85;0.75;;;;;;;;;;8205004;28;20029;-71
2023/08/09 15:11:16;;;;;;;2.15;0.80;;;;;;;;;;8206626;28;20205;-70
2023/08/09 15:15:16;;;;;;;0.80;0.80;;;;;;;;;;8209091;28;20030;-71
2023/08/09 15:19:17;;;;;;;0.88;0.70;;;;;;;;;;8207245;28;20030;-71
2023/08/09 15:23:17;;;;;;;1.27;0.77;;;;;;;;;;8211864;28;20839;-71
2023/08/09 15:27:18;;;;;;;0.70;0.70;;;;;;;;;;8209995;28;20073;-71
2023/08/09 15:31:18;;;;;;;1.75;0.73;;;;;;;;;;8212067;28;20100;-70
2023/08/09 15:35:19;;;;;;;0.70;0.70;;;;;;;;;;8212110;28;20160;-70
2023/08/09 15:39:19;;;;;;;0.98;0.82;;;;;;;;;;8211703;28;20030;-70
2023/08/09 15:43:19;;;;;;;0.68;0.60;;;;;;;;;;8211813;28;20555;-70
2023/08/09 15:47:20;;;;;;;0.90;0.90;;;;;;;;;;8207974;28;20051;-71
2023/08/09 15:51:20;;;;;;;1.42;0.70;;;;;;;;;;8208493;28;20118;-70
2023/08/09 15:55:20;;;;;;;1.58;0.80;;;;;;;;;;8204182;28;20037;-70
2023/08/09 15:59:20;;;;;;;1.02;0.80;;;;;;;;;;8205716;28;20030;-70
2023/08/09 16:03:20;;;;;;;0.70;0.70;;;;;;;;;;8204699;28;20085;-70
2023/08/09 16:07:21;;;;;;;1.10;0.80;;;;;;;;;;8207738;28;20037;-70
2023/08/09 16:11:21;;;;;;;1.05;0.60;;;;;;;;;;8210743;28;20030;-70
2023/08/09 16:15:21;;;;;;;0.55;0.55;;;;;;;;;;8207133;28;20030;-70
2023/08/09 16:19:22;;;;;;;2.67;0.70;;;;;;;;;;8207430;28;20034;-70
2023/08/09 16:23:22;;;;;;;1.10;0.80;;;;;;;;;;8207883;28;20041;-70
2023/08/09 16:27:22;;;;;;;1.25;0.80;;;;;;;;;;8206783;28;20062;-70
2023/08/09 16:31:23;;;;;;;0.60;0.60;;;;;;;;;;8206103;28;20045;-70
2023/08/09 16:35:23;;;;;;;0.90;0.70;;;;;;;;;;8213266;28;20133;-70
2023/08/09 16:39:24;;;;;;;0.70;0.70;;;;;;;;;;8205063;28;20060;-70
2023/08/09 16:43:24;;;;;;;0.70;0.70;;;;;;;;;;8207113;28;20060;-70
2023/08/09 16:47:24;;;;;;;1.98;0.90;;;;;;;;;;8205176;28;20031;-70
2023/08/09 16:51:24;;;;;;;1.85;0.82;;;;;;;;;;8204567;28;20098;-70
2023/08/09 16:55:25;;;;;;;0.80;0.80;;;;;;;;;;8205395;28;20094;-70
2023/08/09 16:59:25;;;;;;;0.70;0.70;;;;;;;;;;8205353;28;20284;-69
2023/08/09 17:03:25;;;;;;;0.85;0.80;;;;;;;;;;8206501;28;20356;-70
2023/08/09 17:07:25;;;;;;;1.17;0.80;;;;;;;;;;8206855;28;20060;-70
2023/08/09 17:11:26;;;;;;;0.93;0.80;;;;;;;;;;8206973;28;20096;-69
2023/08/09 17:15:26;;;;;;;1.17;0.82;;;;;;;;;;8203127;28;20045;-70
2023/08/09 17:19:26;;;;;;;0.93;0.80;;;;;;;;;;8205726;28;20035;-70
2023/08/09 17:23:26;;;;;;;1.00;0.90;;;;;;;;;;8202139;28;20034;-70
2023/08/09 17:27:27;;;;;;;1.33;1.13;;;;;;;;;;8206745;28;20890;-70
2023/08/09 17:31:27;;;;;;;1.50;1.30;;;;;;;;;;8205491;28;20507;-70
2023/08/09 17:35:27;;;;;;;2.57;1.37;;;;;;;;;;8206964;28;20129;-70
2023/08/09 17:39:27;;;;;;;4.00;1.40;;;;;;;;;;8209814;28;20022;-70
2023/08/09 17:43:29;;;;;;;2.88;1.63;;;;;;;;;;8211229;28;20053;-70
2023/08/09 17:47:31;;;;;;;2.67;2.05;;;;;;;;;;8208750;28;20141;-70
2023/08/09 17:51:31;;;;;;;4.10;1.70;;;;;;;;;;8210340;28;20063;-70
2023/08/09 17:55:31;;;;;;;1.63;1.40;;;;;;;;;;8210012;28;20396;-70
2023/08/09 17:59:32;;;;;;;1.40;1.17;;;;;;;;;;8210038;28;20022;-70
2023/08/09 18:03:32;;;;;;;1.35;1.25;;;;;;;;;;8208870;28;20360;-70
2023/08/09 18:07:32;;;;;;;2.28;1.20;;;;;;;;;;8208281;28;20105;-70
2023/08/09 18:11:33;;;;;;;3.25;1.20;;;;;;;;;;8209997;28;20153;-70
2023/08/09 18:15:33;;;;;;;3.60;1.10;;;;;;;;;;8208368;28;20034;-70
2023/08/09 18:19:33;;;;;;;2.42;1.20;;;;;;;;;;8206854;28;20032;-70
2023/08/09 18:23:34;;;;;;;3.95;1.10;;;;;;;;;;8210179;28;20606;-70
2023/08/09 18:27:34;;;;;;;1.23;1.13;;;;;;;;;;8209077;28;20031;-70
2023/08/09 18:31:35;;;;;;;2.90;1.30;;;;;;;;;;8209748;28;20047;-70
2023/08/09 18:35:35;;;;;;;2.90;1.20;;;;;;;;;;8207934;28;20313;-70
2023/08/09 18:39:35;;;;;;;4.55;1.35;;;;;;;;;;8207443;28;20030;-70
2023/08/09 18:43:37;;;;;;;1.15;1.00;;;;;;;;;;8211243;28;20406;-69
2023/08/09 18:47:37;;;;;;;1.27;1.00;;;;;;;;;;8208500;28;20037;-70
2023/08/09 18:51:37;;;;;;;1.23;1.00;;;;;;;;;;8210137;28;20638;-70
2023/08/09 18:55:37;;;;;;;1.63;1.08;;;;;;;;;;8209213;28;20023;-70
2023/08/09 18:59:37;;;;;;;1.52;1.08;;;;;;;;;;8210378;28;20069;-69
2023/08/09 19:03:37;;;;;;;3.13;1.20;;;;;;;;;;8208516;28;20750;-69
2023/08/09 19:07:38;;;;;;;3.03;1.20;;;;;;;;;;8207391;28;20047;-69
2023/08/09 19:11:38;;;;;;;2.38;1.08;;;;;;;;;;8209277;28;20030;-69
2023/08/09 19:15:38;;;;;;;1.27;0.98;;;;;;;;;;8208567;28;20093;-70
2023/08/09 19:19:39;;;;;;;2.45;1.00;;;;;;;;;;8208581;28;20030;-70
2023/08/09 19:23:39;;;;;;;1.38;1.17;;;;;;;;;;8208485;28;20039;-70
2023/08/09 19:27:40;;;;;;;1.00;0.90;;;;;;;;;;8208797;28;20062;-70
2023/08/09 19:31:40;;;;;;;1.55;1.00;;;;;;;;;;8209021;28;20105;-70
2023/08/09 19:35:40;;;;;;;2.28;0.98;;;;;;;;;;8208984;28;20057;-70
2023/08/09 19:39:40;;;;;;;3.05;0.90;;;;;;;;;;8205063;28;20034;-70
2023/08/09 19:43:41;;;;;;;0.83;0.83;;;;;;;;;;8206925;28;20030;-70
2023/08/09 19:47:41;;;;;;;1.23;1.08;;;;;;;;;;8205809;28;20309;-69
2023/08/09 19:51:41;;;;;;;1.77;1.10;;;;;;;;;;8207271;28;20479;-69
2023/08/09 19:55:44;;;;;;;2.08;0.90;;;;;;;;;;8204883;28;20037;-69
2023/08/09 19:59:44;;;;;;;1.67;1.17;;;;;;;;;;8205982;28;20031;-69
2023/08/09 20:03:45;;;;;;;1.95;1.05;;;;;;;;;;8205845;28;20030;-69
2023/08/09 20:07:45;;;;;;;1.00;0.90;;;;;;;;;;8205165;28;20099;-69
2023/08/09 20:11:45;;;;;;;1.63;1.13;;;;;;;;;;8207831;28;20027;-69
2023/08/09 20:15:45;;;;;;;1.65;1.10;;;;;;;;;;8207307;28;20880;-69
2023/08/09 20:19:46;;;;;;;1.90;1.10;;;;;;;;;;8206550;28;20033;-69
2023/08/09 20:23:46;;;;;;;0.90;0.90;;;;;;;;;;8207173;28;20058;-69
2023/08/09 20:27:47;;;;;;;1.13;1.10;;;;;;;;;;8204484;28;20061;-69
2023/08/09 20:31:47;;;;;;;2.10;0.95;;;;;;;;;;8208016;28;20047;-69
2023/08/09 20:35:48;;;;;;;1.73;0.90;;;;;;;;;;8210066;28;20126;-69
2023/08/09 20:39:48;;;;;;;3.33;1.02;;;;;;;;;;8222731;28;20022;-68
2023/08/09 20:43:50;;;;;;;1.20;1.10;;;;;;;;;;8223021;28;20173;-69
2023/08/09 20:47:50;;;;;;;2.28;1.15;;;;;;;;;;8205509;28;20042;-69
2023/08/09 20:51:51;;;;;;;1.02;0.90;;;;;;;;;;8208189;28;20034;-69
2023/08/09 20:55:52;;;;;;;1.45;1.05;;;;;;;;;;8206340;28;20615;-69
2023/08/09 20:59:52;;;;;;;2.22;1.20;;;;;;;;;;8209169;28;20979;-69
2023/08/09 21:03:53;;;;;;;1.00;1.00;;;;;;;;;;8206495;28;20035;-69
2023/08/09 21:07:53;;;;;;;1.10;1.05;;;;;;;;;;8207257;28;20270;-69
2023/08/09 21:11:53;;;;;;;1.13;1.00;;;;;;;;;;8205586;28;20026;-69
2023/08/09 21:15:53;;;;;;;1.40;1.10;;;;;;;;;;8206128;28;20038;-69
2023/08/09 21:19:54;;;;;;;1.95;1.10;;;;;;;;;;8205352;28;20459;-69
2023/08/09 21:23:54;;;;;;;3.03;1.20;;;;;;;;;;8203478;28;20037;-69
2023/08/09 21:27:55;;;;;;;1.70;1.10;;;;;;;;;;8204294;28;20105;-69
2023/08/09 21:31:55;;;;;;;0.93;0.93;;;;;;;;;;8204274;28;20042;-69
2023/08/09 21:35:55;;;;;;;1.40;1.02;;;;;;;;;;8212187;28;20033;-69
2023/08/09 21:39:55;;;;;;;1.67;1.20;;;;;;;;;;8200471;28;20053;-69
2023/08/09 21:43:55;;;;;;;2.13;1.10;;;;;;;;;;8202293;28;20037;-69
2023/08/09 21:47:56;;;;;;;0.95;0.90;;;;;;;;;;8202421;28;20039;-70
2023/08/09 21:51:56;;;;;;;3.23;1.20;;;;;;;;;;8201090;28;20062;-69
2023/08/09 21:55:57;;;;;;;1.60;1.20;;;;;;;;;;8201388;28;20385;-69
2023/08/09 21:59:57;;;;;;;1.42;1.00;;;;;;;;;;8202428;28;20031;-69
2023/08/09 22:03:57;;;;;;;2.50;1.17;;;;;;;;;;8202721;28;20045;-69
2023/08/09 22:07:58;;;;;;;1.10;1.00;;;;;;;;;;8204466;28;20081;-69
2023/08/09 22:11:58;;;;;;;1.13;1.10;;;;;;;;;;8201046;28;20122;-69
2023/08/09 22:15:58;;;;;;;1.88;0.90;;;;;;;;;;8209238;28;20401;-69
2023/08/09 22:19:58;;;;;;;1.45;1.10;;;;;;;;;;8201483;28;20050;-69
2023/08/09 22:23:59;;;;;;;1.80;1.10;;;;;;;;;;8208032;28;20026;-69
2023/08/09 22:27:59;;;;;;;3.13;1.23;;;;;;;;;;8209121;28;20140;-69
2023/08/09 22:32:00;;;;;;;2.20;1.20;;;;;;;;;;8209364;28;20066;-69
2023/08/09 22:36:00;;;;;;;1.30;1.17;;;;;;;;;;8222940;28;20042;-69
2023/08/09 22:40:01;;;;;;;1.30;1.20;;;;;;;;;;8207385;28;20587;-69
2023/08/09 22:44:01;;;;;;;1.23;1.10;;;;;;;;;;8206881;28;20105;-69
2023/08/09 22:48:02;;;;;;;3.80;1.20;;;;;;;;;;8206668;28;20046;-69
2023/08/09 22:52:02;;;;;;;3.00;1.10;;;;;;;;;;8208643;28;20868;-69
2023/08/09 22:56:03;;;;;;;1.20;1.10;;;;;;;;;;8213248;28;20053;-69
2023/08/09 23:00:05;;;;;;;1.42;1.00;;;;;;;;;;8207750;28;20436;-69
2023/08/09 23:04:06;;;;;;;1.02;0.98;;;;;;;;;;8208711;28;20196;-69
2023/08/09 23:08:06;;;;;;;1.75;0.93;;;;;;;;;;8209783;28;20059;-69
2023/08/09 23:12:07;;;;;;;2.50;1.30;;;;;;;;;;8205995;28;20487;-69
2023/08/09 23:16:07;;;;;;;2.35;1.00;;;;;;;;;;8206932;28;20039;-69
2023/08/09 23:20:09;;;;;;;1.77;1.30;;;;;;;;;;8208658;28;20088;-69
2023/08/09 23:24:10;;;;;;;1.35;1.10;;;;;;;;;;8209091;28;20397;-69
2023/08/09 23:28:10;;;;;;;1.02;1.02;;;;;;;;;;8207092;28;20035;-69
2023/08/09 23:32:11;;;;;;;1.70;1.30;;;;;;;;;;8201986;28;20072;-69
2023/08/09 23:36:11;;;;;;;1.38;1.27;;;;;;;;;;8208137;28;20030;-69
2023/08/09 23:40:13;;;;;;;2.15;1.02;;;;;;;;;;8206896;28;20126;-69
2023/08/09 23:44:13;;;;;;;1.58;1.38;;;;;;;;;;8206016;28;20026;-68
2023/08/09 23:48:13;;;;;;;1.77;0.95;;;;;;;;;;8206412;28;20031;-69
2023/08/09 23:52:13;;;;;;;1.13;0.90;;;;;;;;;;8203733;28;20138;-69
2023/08/09 23:56:13;;;;;;;1.40;1.13;;;;;;;;;;8208560;28;20038;-69
